createdAt,value
2022-08-01T00:01:56.775Z,100.00
2022-08-01T00:04:23.215Z,100.00
2022-08-01T00:06:49.674Z,100.00
2022-08-01T00:09:24.106Z,100.00
2022-08-01T00:11:59.684Z,100.00
2022-08-01T00:14:32.711Z,100.00
2022-08-01T00:17:05.170Z,100.00
2022-08-01T00:19:33.860Z,100.00
2022-08-01T00:22:00.339Z,100.00
2022-08-01T00:24:26.766Z,100.00
2022-08-01T00:26:53.191Z,100.00
2022-08-01T00:30:09.490Z,100.00
2022-08-01T00:32:06.472Z,100.00
2022-08-01T00:34:33.190Z,100.00
2022-08-01T00:36:59.634Z,100.00
2022-08-01T00:39:26.043Z,100.00
2022-08-01T00:41:59.790Z,100.00
2022-08-01T00:44:26.944Z,100.00
2022-08-01T00:46:53.382Z,100.00
2022-08-01T00:49:19.857Z,100.00
2022-08-01T00:51:46.341Z,100.00
2022-08-01T00:54:13.256Z,100.00
2022-08-01T00:56:42.997Z,100.00
2022-08-01T00:59:10.036Z,100.00
2022-08-01T01:01:39.432Z,100.00
2022-08-01T01:04:08.582Z,100.00
2022-08-01T01:07:01.044Z,100.00
2022-08-01T01:09:30.275Z,100.00
2022-08-01T01:12:17.759Z,100.00
2022-08-01T01:15:03.904Z,100.00
2022-08-01T01:17:50.630Z,100.00
2022-08-01T01:20:18.594Z,100.00
2022-08-01T01:22:54.109Z,100.00
2022-08-01T01:25:37.676Z,100.00
2022-08-01T01:28:21.393Z,100.00
2022-08-01T01:30:51.728Z,100.00
2022-08-01T01:33:18.602Z,100.00
2022-08-01T01:35:48.908Z,100.00
2022-08-01T01:38:23.215Z,100.00
2022-08-01T01:40:51.615Z,100.00
2022-08-01T01:43:18.175Z,100.00
2022-08-01T01:45:45.780Z,100.00
2022-08-01T01:48:14.849Z,100.00
2022-08-01T01:50:42.268Z,100.00
2022-08-01T01:53:08.940Z,100.00
2022-08-01T01:55:49.314Z,100.00
2022-08-01T01:58:17.193Z,100.00
2022-08-01T02:00:45.724Z,100.00
2022-08-01T02:03:13.443Z,100.00
2022-08-01T02:05:40.790Z,100.00
2022-08-01T02:08:07.940Z,100.00
2022-08-01T02:10:35.241Z,100.00
2022-08-01T02:13:04.228Z,100.00
2022-08-01T02:15:31.461Z,100.00
2022-08-01T02:17:58.702Z,100.00
2022-08-01T02:20:27.323Z,100.00
2022-08-01T02:22:58.904Z,100.00
2022-08-01T02:25:28.366Z,100.00
2022-08-01T02:28:09.108Z,100.00
2022-08-01T02:30:37.494Z,100.00
2022-08-01T02:33:15.531Z,100.00
2022-08-01T02:36:32.564Z,100.00
2022-08-01T02:38:32.618Z,100.00
2022-08-01T02:41:03.538Z,100.00
2022-08-01T02:43:31.188Z,100.00
2022-08-01T02:46:01.489Z,100.00
2022-08-01T02:48:28.187Z,100.00
2022-08-01T02:50:56.896Z,100.00
2022-08-01T02:53:44.224Z,100.00
2022-08-01T02:56:12.941Z,100.00
2022-08-01T02:58:40.306Z,100.00
2022-08-01T03:01:08.252Z,100.00
2022-08-01T03:03:35.229Z,100.00
2022-08-01T03:06:02.800Z,100.00
2022-08-01T03:08:30.791Z,100.00
2022-08-01T03:10:58.130Z,100.00
2022-08-01T03:13:26.331Z,100.00
2022-08-01T03:15:53.242Z,100.00
2022-08-01T03:18:19.785Z,100.00
2022-08-01T03:20:46.696Z,100.00
2022-08-01T03:23:13.756Z,100.00
2022-08-01T03:25:41.862Z,100.00
2022-08-01T03:28:09.450Z,100.00
2022-08-01T03:30:37.898Z,100.00
2022-08-01T03:33:04.544Z,100.00
2022-08-01T03:35:34.808Z,100.00
2022-08-01T03:38:17.460Z,100.00
2022-08-01T03:40:54.449Z,100.00
2022-08-01T03:43:29.010Z,100.00
2022-08-01T03:45:57.656Z,100.00
2022-08-01T03:48:29.141Z,100.00
2022-08-01T03:50:56.371Z,100.00
2022-08-01T03:53:27.316Z,100.00
2022-08-01T03:55:54.362Z,100.00
2022-08-01T03:58:21.429Z,100.00
2022-08-01T04:00:48.607Z,100.00
2022-08-01T04:03:15.488Z,100.00
2022-08-01T04:05:43.210Z,100.00
2022-08-01T04:08:09.697Z,100.00
2022-08-01T04:10:36.271Z,100.00
2022-08-01T04:13:02.873Z,100.00
2022-08-01T04:15:29.409Z,100.00
2022-08-01T04:17:55.814Z,100.00
2022-08-01T04:20:22.300Z,100.00
2022-08-01T04:22:48.839Z,100.00
2022-08-01T04:25:27.577Z,100.00
2022-08-01T04:27:54.541Z,100.00
2022-08-01T04:30:27.367Z,100.00
2022-08-01T04:32:55.905Z,100.00
2022-08-01T04:36:02.778Z,100.00
2022-08-01T04:38:10.261Z,100.00
2022-08-01T04:40:37.208Z,100.00
2022-08-01T04:43:03.972Z,100.00
2022-08-01T04:45:30.680Z,100.00
2022-08-01T04:47:58.462Z,100.00
2022-08-01T04:50:25.384Z,100.00
2022-08-01T04:52:52.569Z,100.00
2022-08-01T04:55:19.025Z,100.00
2022-08-01T04:57:47.580Z,100.00
2022-08-01T05:00:14.892Z,100.00
2022-08-01T05:02:41.296Z,100.00
2022-08-01T05:05:08.128Z,100.00
2022-08-01T05:07:45.093Z,100.00
2022-08-01T05:10:12.078Z,100.00
2022-08-01T05:12:38.480Z,100.00
2022-08-01T05:15:05.627Z,100.00
2022-08-01T05:17:32.545Z,100.00
2022-08-01T05:19:59.015Z,100.00
2022-08-01T05:22:26.490Z,100.00
2022-08-01T05:24:53.639Z,100.00
2022-08-01T05:27:20.504Z,100.00
2022-08-01T05:29:48.014Z,100.00
2022-08-01T05:32:14.497Z,100.00
2022-08-01T05:34:40.935Z,100.00
2022-08-01T05:37:08.303Z,100.00
2022-08-01T05:39:34.691Z,100.00
2022-08-01T05:42:01.161Z,100.00
2022-08-01T05:44:27.650Z,100.00
2022-08-01T05:46:54.095Z,100.00
2022-08-01T05:49:20.622Z,100.00
2022-08-01T05:51:47.195Z,100.00
2022-08-01T05:54:13.724Z,100.00
2022-08-01T05:56:40.152Z,100.00
2022-08-01T05:59:06.548Z,100.00
2022-08-01T06:01:33.152Z,100.00
2022-08-01T06:03:59.563Z,100.00
2022-08-01T06:06:26.684Z,100.00
2022-08-01T06:08:53.147Z,100.00
2022-08-01T06:11:19.595Z,100.00
2022-08-01T06:13:48.469Z,100.00
2022-08-01T06:16:15.752Z,100.00
2022-08-01T06:18:42.207Z,100.00
2022-08-01T06:21:08.632Z,100.00
2022-08-01T06:23:35.029Z,100.00
2022-08-01T06:26:01.683Z,100.00
2022-08-01T06:28:28.104Z,100.00
2022-08-01T06:30:54.554Z,100.00
2022-08-01T06:33:21.002Z,100.00
2022-08-01T06:35:47.465Z,100.00
2022-08-01T06:38:14.799Z,100.00
2022-08-01T06:40:41.240Z,100.00
2022-08-01T06:43:07.663Z,100.00
2022-08-01T06:45:34.157Z,100.00
2022-08-01T06:48:00.552Z,100.00
2022-08-01T06:50:26.952Z,100.00
2022-08-01T06:52:53.350Z,100.00
2022-08-01T06:55:20.713Z,100.00
2022-08-01T06:57:52.158Z,100.00
2022-08-01T07:00:23.117Z,100.00
2022-08-01T07:02:51.033Z,100.00
2022-08-01T07:05:17.769Z,100.00
2022-08-01T07:07:44.457Z,100.00
2022-08-01T07:10:11.274Z,100.00
2022-08-01T07:12:38.999Z,100.00
2022-08-01T07:15:06.470Z,100.00
2022-08-01T07:17:32.864Z,100.00
2022-08-01T07:19:59.258Z,100.00
2022-08-01T07:22:25.696Z,100.00
2022-08-01T07:24:54.454Z,100.00
2022-08-01T07:27:21.331Z,100.00
2022-08-01T07:29:52.295Z,100.00
2022-08-01T07:32:20.017Z,100.00
2022-08-01T07:34:46.704Z,100.00
2022-08-01T07:37:13.133Z,100.00
2022-08-01T07:39:39.536Z,100.00
2022-08-01T07:42:08.244Z,100.00
2022-08-01T07:44:35.920Z,100.00
2022-08-01T07:47:02.418Z,100.00
2022-08-01T07:49:29.130Z,100.00
2022-08-01T07:52:03.710Z,100.00
2022-08-01T07:54:33.516Z,100.00
2022-08-01T07:57:00.839Z,100.00
2022-08-01T07:59:27.240Z,100.00
2022-08-01T08:01:53.783Z,100.00
2022-08-01T08:04:20.236Z,100.00
2022-08-01T08:06:48.439Z,100.00
2022-08-01T08:09:15.630Z,100.00
2022-08-01T08:11:47.183Z,100.00
2022-08-01T08:14:14.445Z,100.00
2022-08-01T08:16:40.944Z,100.00
2022-08-01T08:19:07.349Z,100.00
2022-08-01T08:21:33.811Z,100.00
2022-08-01T08:24:18.945Z,100.00
2022-08-01T08:26:45.360Z,100.00
2022-08-01T08:29:11.905Z,100.00
2022-08-01T08:31:52.053Z,100.00
2022-08-01T08:34:19.628Z,100.00
2022-08-01T08:36:47.966Z,100.00
2022-08-01T08:39:14.743Z,100.00
2022-08-01T08:41:41.857Z,100.00
2022-08-01T08:44:10.349Z,100.00
2022-08-01T08:46:45.763Z,100.00
2022-08-01T08:49:13.862Z,100.00
2022-08-01T08:51:42.394Z,100.00
2022-08-01T08:54:11.791Z,100.00
2022-08-01T08:56:38.622Z,100.00
2022-08-01T08:59:05.274Z,100.00
2022-08-01T09:01:36.191Z,100.00
2022-08-01T09:04:05.663Z,100.00
2022-08-01T09:06:32.698Z,100.00
2022-08-01T09:08:59.649Z,100.00
2022-08-01T09:11:26.494Z,100.00
2022-08-01T09:14:26.579Z,100.00
2022-08-01T09:17:07.464Z,100.00
2022-08-01T09:20:03.480Z,100.00
2022-08-01T09:22:33.629Z,100.00
2022-08-01T09:25:02.644Z,100.00
2022-08-01T09:27:29.189Z,100.00
2022-08-01T09:30:11.385Z,100.00
2022-08-01T09:33:11.554Z,100.00
2022-08-01T09:35:46.276Z,100.00
2022-08-01T09:38:20.507Z,100.00
2022-08-01T09:40:54.731Z,100.00
2022-08-01T09:43:24.491Z,100.00
2022-08-01T09:45:53.434Z,100.00
2022-08-01T09:48:22.522Z,100.00
2022-08-01T09:50:53.321Z,100.00
2022-08-01T09:53:29.927Z,100.00
2022-08-01T09:56:09.652Z,100.00
2022-08-01T09:59:02.056Z,100.00
2022-08-01T10:01:43.203Z,100.00
2022-08-01T10:04:15.150Z,100.00
2022-08-01T10:06:45.022Z,100.00
2022-08-01T10:09:14.017Z,100.00
2022-08-01T10:11:42.621Z,100.00
2022-08-01T10:14:09.169Z,100.00
2022-08-01T10:16:38.595Z,100.00
2022-08-01T10:19:14.506Z,100.00
2022-08-01T10:21:56.343Z,100.00
2022-08-01T10:24:26.827Z,100.00
2022-08-01T10:26:57.949Z,100.00
2022-08-01T10:29:46.288Z,100.00
2022-08-01T10:32:11.565Z,100.00
2022-08-01T10:34:38.352Z,100.00
2022-08-01T10:37:11.301Z,100.00
2022-08-01T10:39:37.935Z,100.00
2022-08-01T10:42:10.505Z,100.00
2022-08-01T10:44:37.673Z,100.00
2022-08-01T10:47:13.223Z,100.00
2022-08-01T10:50:04.930Z,100.00
2022-08-01T10:52:31.476Z,100.00
2022-08-01T10:55:05.180Z,100.00
2022-08-01T10:57:52.647Z,100.00
2022-08-01T11:00:21.373Z,100.00
2022-08-01T11:03:04.320Z,100.00
2022-08-01T11:05:35.938Z,100.00
2022-08-01T11:08:04.860Z,100.00
2022-08-01T11:10:45.404Z,100.00
2022-08-01T11:13:12.463Z,100.00
2022-08-01T11:15:50.008Z,100.00
2022-08-01T11:18:29.690Z,100.00
2022-08-01T11:21:56.288Z,100.00
2022-08-01T11:23:50.547Z,100.00
2022-08-01T11:26:17.704Z,100.00
2022-08-01T11:29:05.030Z,100.00
2022-08-01T11:31:37.528Z,100.00
2022-08-01T11:34:04.611Z,100.00
2022-08-01T11:36:55.875Z,100.00
2022-08-01T11:39:18.702Z,100.00
2022-08-01T11:41:49.091Z,100.00
2022-08-01T11:44:21.235Z,100.00
2022-08-01T11:47:11.543Z,100.00
2022-08-01T11:49:48.928Z,100.00
2022-08-01T11:52:30.898Z,100.00
2022-08-01T11:54:59.512Z,100.00
2022-08-01T11:57:34.132Z,100.00
2022-08-01T12:00:15.140Z,100.00
2022-08-01T12:02:45.473Z,100.00
2022-08-01T12:05:15.182Z,100.00
2022-08-01T12:07:43.530Z,100.00
2022-08-01T12:10:12.342Z,100.00
2022-08-01T12:12:43.791Z,98.67
2022-08-01T12:15:10.869Z,100.00
2022-08-01T12:17:40.666Z,96.60
2022-08-01T12:20:15.425Z,94.21
2022-08-01T12:22:44.301Z,93.96
2022-08-01T12:25:10.890Z,92.43
2022-08-01T12:27:38.749Z,97.77
2022-08-01T12:30:11.477Z,96.89
2022-08-01T12:32:40.395Z,97.98
2022-08-01T12:35:18.702Z,95.82
2022-08-01T12:37:50.016Z,94.26
2022-08-01T12:40:22.055Z,95.55
2022-08-01T12:42:50.636Z,92.05
2022-08-01T12:45:26.167Z,84.56
2022-08-01T12:47:53.661Z,76.41
2022-08-01T12:50:22.574Z,84.49
2022-08-01T12:52:50.550Z,89.33
2022-08-01T12:55:18.728Z,84.37
2022-08-01T12:57:54.018Z,80.76
2022-08-01T13:00:25.936Z,86.61
2022-08-01T13:03:11.078Z,90.33
2022-08-01T13:05:49.895Z,92.48
2022-08-01T13:08:22.475Z,84.05
2022-08-01T13:10:49.559Z,83.43
2022-08-01T13:13:27.905Z,78.07
2022-08-01T13:16:04.697Z,75.31
2022-08-01T13:18:33.399Z,72.44
2022-08-01T13:21:16.429Z,71.06
2022-08-01T13:24:13.427Z,69.02
2022-08-01T13:26:43.762Z,67.93
2022-08-01T13:29:11.790Z,65.50
2022-08-01T13:31:39.441Z,66.24
2022-08-01T13:34:05.888Z,69.97
2022-08-01T13:36:32.428Z,73.84
2022-08-01T13:39:18.817Z,75.98
2022-08-01T13:41:46.260Z,78.32
2022-08-01T13:44:12.729Z,82.66
2022-08-01T13:46:39.437Z,90.07
2022-08-01T13:49:16.584Z,90.27
2022-08-01T13:51:43.544Z,94.80
2022-08-01T13:54:10.104Z,94.63
2022-08-01T13:56:36.782Z,85.57
2022-08-01T13:59:03.312Z,80.09
2022-08-01T14:01:34.013Z,75.20
2022-08-01T14:04:00.973Z,78.88
2022-08-01T14:06:27.752Z,79.06
2022-08-01T14:08:54.168Z,77.41
2022-08-01T14:11:20.668Z,75.08
2022-08-01T14:13:47.873Z,75.27
2022-08-01T14:16:14.877Z,79.04
2022-08-01T14:18:41.895Z,83.08
2022-08-01T14:21:10.944Z,85.68
2022-08-01T14:23:37.390Z,92.14
2022-08-01T14:26:08.434Z,88.80
2022-08-01T14:28:38.555Z,84.51
2022-08-01T14:31:07.022Z,81.38
2022-08-01T14:33:34.366Z,78.19
2022-08-01T14:36:20.599Z,81.68
2022-08-01T14:38:47.322Z,84.63
2022-08-01T14:41:15.546Z,87.91
2022-08-01T14:43:41.937Z,77.19
2022-08-01T14:46:10.708Z,75.46
2022-08-01T14:48:37.105Z,74.71
2022-08-01T14:51:03.950Z,78.81
2022-08-01T14:53:31.087Z,84.59
2022-08-01T14:55:57.521Z,85.02
2022-08-01T14:58:23.917Z,85.79
2022-08-01T15:00:52.459Z,88.03
2022-08-01T15:03:22.393Z,86.70
2022-08-01T15:05:48.803Z,88.57
2022-08-01T15:08:15.251Z,86.87
2022-08-01T15:10:41.772Z,86.76
2022-08-01T15:13:08.690Z,82.31
2022-08-01T15:15:35.094Z,81.80
2022-08-01T15:18:01.519Z,80.67
2022-08-01T15:20:28.025Z,79.85
2022-08-01T15:22:55.086Z,81.60
2022-08-01T15:25:21.560Z,83.05
2022-08-01T15:27:48.390Z,85.36
2022-08-01T15:30:14.777Z,81.98
2022-08-01T15:32:41.163Z,79.55
2022-08-01T15:35:07.944Z,84.93
2022-08-01T15:37:35.187Z,84.74
2022-08-01T15:40:04.219Z,86.31
2022-08-01T15:42:30.635Z,88.54
2022-08-01T15:44:57.026Z,91.53
2022-08-01T15:47:24.960Z,92.20
2022-08-01T15:49:52.391Z,89.13
2022-08-01T15:52:21.785Z,89.04
2022-08-01T15:54:49.960Z,85.80
2022-08-01T15:57:16.570Z,86.96
2022-08-01T15:59:42.991Z,87.30
2022-08-01T16:02:09.867Z,87.91
2022-08-01T16:04:38.960Z,86.68
2022-08-01T16:07:06.114Z,86.29
2022-08-01T16:09:32.526Z,86.00
2022-08-01T16:11:58.927Z,88.22
2022-08-01T16:14:25.329Z,90.46
2022-08-01T16:16:51.746Z,89.54
2022-08-01T16:19:19.469Z,86.51
2022-08-01T16:21:47.899Z,86.41
2022-08-01T16:24:14.540Z,86.63
2022-08-01T16:26:41.106Z,85.55
2022-08-01T16:29:07.561Z,86.12
2022-08-01T16:31:43.788Z,83.87
2022-08-01T16:34:21.185Z,84.72
2022-08-01T16:36:50.175Z,82.19
2022-08-01T16:39:22.439Z,85.69
2022-08-01T16:41:49.806Z,85.42
2022-08-01T16:44:28.661Z,88.04
2022-08-01T16:47:02.964Z,88.51
2022-08-01T16:49:29.579Z,89.36
2022-08-01T16:51:55.993Z,93.15
2022-08-01T16:54:25.429Z,95.09
2022-08-01T16:56:52.674Z,94.43
2022-08-01T16:59:19.064Z,95.22
2022-08-01T17:01:59.167Z,94.09
2022-08-01T17:04:28.119Z,90.90
2022-08-01T17:06:54.517Z,94.02
2022-08-01T17:09:20.977Z,91.08
2022-08-01T17:11:47.413Z,92.40
2022-08-01T17:14:14.525Z,90.85
2022-08-01T17:16:41.658Z,91.75
2022-08-01T17:19:08.057Z,90.40
2022-08-01T17:21:34.466Z,91.76
2022-08-01T17:24:00.989Z,95.59
2022-08-01T17:26:27.421Z,100.00
2022-08-01T17:28:53.822Z,97.57
2022-08-01T17:31:20.332Z,98.61
2022-08-01T17:33:49.518Z,98.72
2022-08-01T17:36:20.997Z,98.41
2022-08-01T17:38:47.514Z,99.71
2022-08-01T17:41:14.038Z,99.88
2022-08-01T17:43:40.492Z,99.75
2022-08-01T17:46:06.897Z,100.00
2022-08-01T17:48:33.307Z,100.00
2022-08-01T17:50:59.781Z,100.00
2022-08-01T17:53:26.204Z,100.00
2022-08-01T17:55:57.206Z,100.00
2022-08-01T17:58:48.819Z,100.00
2022-08-01T18:01:12.052Z,100.00
2022-08-01T18:03:41.007Z,100.00
2022-08-01T18:06:08.336Z,100.00
2022-08-01T18:08:35.378Z,100.00
2022-08-01T18:11:01.838Z,100.00
2022-08-01T18:13:29.270Z,100.00
2022-08-01T18:15:56.319Z,100.00
2022-08-01T18:18:32.744Z,100.00
2022-08-01T18:21:01.137Z,100.00
2022-08-01T18:23:27.654Z,100.00
2022-08-01T18:25:54.204Z,100.00
2022-08-01T18:28:30.724Z,100.00
2022-08-01T18:31:00.793Z,100.00
2022-08-01T18:33:27.301Z,100.00
2022-08-01T18:35:54.320Z,100.00
2022-08-01T18:38:20.727Z,100.00
2022-08-01T18:40:50.545Z,100.00
2022-08-01T18:43:17.014Z,100.00
2022-08-01T18:45:43.471Z,100.00
2022-08-01T18:48:11.184Z,100.00
2022-08-01T18:50:37.663Z,100.00
2022-08-01T18:53:04.064Z,100.00
2022-08-01T18:55:30.559Z,100.00
2022-08-01T18:57:56.944Z,100.00
2022-08-01T19:00:23.376Z,100.00
2022-08-01T19:02:49.783Z,100.00
2022-08-01T19:05:16.211Z,100.00
2022-08-01T19:08:04.884Z,100.00
2022-08-01T19:10:28.945Z,100.00
2022-08-01T19:12:55.378Z,100.00
2022-08-01T19:15:21.794Z,100.00
2022-08-01T19:17:48.571Z,100.00
2022-08-01T19:20:15.117Z,100.00
2022-08-01T19:22:41.681Z,100.00
2022-08-01T19:25:08.515Z,100.00
2022-08-01T19:27:37.508Z,100.00
2022-08-01T19:30:04.517Z,100.00
2022-08-01T19:32:34.243Z,100.00
2022-08-01T19:35:08.947Z,100.00
2022-08-01T19:37:35.393Z,100.00
2022-08-01T19:40:01.760Z,100.00
2022-08-01T19:42:29.160Z,100.00
2022-08-01T19:44:55.809Z,100.00
2022-08-01T19:47:22.297Z,100.00
2022-08-01T19:49:49.043Z,100.00
2022-08-01T19:52:17.719Z,100.00
2022-08-01T19:54:45.432Z,100.00
2022-08-01T19:57:15.610Z,100.00
2022-08-01T19:59:45.537Z,100.00
2022-08-01T20:02:15.414Z,100.00
2022-08-01T20:04:42.686Z,100.00
2022-08-01T20:07:09.484Z,100.00
2022-08-01T20:09:36.822Z,100.00
2022-08-01T20:12:03.358Z,100.00
2022-08-01T20:14:29.839Z,100.00
2022-08-01T20:16:56.439Z,100.00
2022-08-01T20:19:25.959Z,100.00
2022-08-01T20:22:03.214Z,100.00
2022-08-01T20:24:38.036Z,100.00
2022-08-01T20:27:06.420Z,100.00
2022-08-01T20:29:33.261Z,100.00
2022-08-01T20:32:00.108Z,100.00
2022-08-01T20:34:27.314Z,100.00
2022-08-01T20:36:56.412Z,100.00
2022-08-01T20:39:23.810Z,100.00
2022-08-01T20:41:59.579Z,100.00
2022-08-01T20:44:26.916Z,100.00
2022-08-01T20:46:54.302Z,100.00
2022-08-01T20:49:21.321Z,100.00
2022-08-01T20:51:50.567Z,100.00
2022-08-01T20:54:16.985Z,100.00
2022-08-01T20:56:58.982Z,100.00
2022-08-01T20:59:54.528Z,100.00
2022-08-01T21:03:01.259Z,100.00
2022-08-01T21:05:30.874Z,100.00
2022-08-01T21:08:13.232Z,100.00
2022-08-01T21:10:40.692Z,100.00
2022-08-01T21:13:12.511Z,100.00
2022-08-01T21:16:22.201Z,100.00
2022-08-01T21:18:58.053Z,100.00
2022-08-01T21:21:30.110Z,100.00
2022-08-01T21:24:05.889Z,100.00
2022-08-01T21:26:35.568Z,100.00
2022-08-01T21:29:06.354Z,100.00
2022-08-01T21:31:40.893Z,100.00
2022-08-01T21:34:08.137Z,100.00
2022-08-01T21:36:35.771Z,100.00
2022-08-01T21:39:04.770Z,100.00
2022-08-01T21:42:05.003Z,100.00
2022-08-01T21:44:18.196Z,100.00
2022-08-01T21:46:47.033Z,100.00
2022-08-01T21:49:13.537Z,100.00
2022-08-01T21:51:51.712Z,100.00
2022-08-01T21:54:24.650Z,100.00
2022-08-01T21:57:08.909Z,100.00
2022-08-01T21:59:51.228Z,100.00
2022-08-01T22:02:18.073Z,100.00
2022-08-01T22:05:13.982Z,100.00
2022-08-01T22:07:48.541Z,100.00
2022-08-01T22:10:19.482Z,100.00
2022-08-01T22:12:46.841Z,100.00
2022-08-01T22:15:14.858Z,100.00
2022-08-01T22:17:41.953Z,100.00
2022-08-01T22:20:09.183Z,100.00
2022-08-01T22:22:50.866Z,100.00
2022-08-01T22:25:19.909Z,100.00
2022-08-01T22:28:06.283Z,100.00
2022-08-01T22:30:34.271Z,100.00
2022-08-01T22:33:07.112Z,100.00
2022-08-01T22:35:43.074Z,100.00
2022-08-01T22:38:10.131Z,100.00
2022-08-01T22:40:40.571Z,100.00
2022-08-01T22:43:17.178Z,100.00
2022-08-01T22:45:54.294Z,100.00
2022-08-01T22:48:25.700Z,100.00
2022-08-01T22:51:05.838Z,100.00
2022-08-01T22:53:44.393Z,100.00
2022-08-01T22:56:11.884Z,100.00
2022-08-01T22:58:40.235Z,100.00
2022-08-01T23:01:10.625Z,100.00
2022-08-01T23:03:40.545Z,100.00
2022-08-01T23:06:16.873Z,100.00
2022-08-01T23:08:45.933Z,100.00
2022-08-01T23:11:12.992Z,100.00
2022-08-01T23:13:39.834Z,100.00
2022-08-01T23:16:06.274Z,100.00
2022-08-01T23:18:32.811Z,100.00
2022-08-01T23:21:02.125Z,100.00
2022-08-01T23:23:30.723Z,100.00
2022-08-01T23:25:58.817Z,100.00
2022-08-01T23:28:26.149Z,100.00
2022-08-01T23:30:52.739Z,100.00
2022-08-01T23:33:19.254Z,100.00
2022-08-01T23:35:45.883Z,100.00
2022-08-01T23:38:15.637Z,100.00
2022-08-01T23:40:42.318Z,100.00
2022-08-01T23:43:16.733Z,100.00
2022-08-01T23:46:04.371Z,100.00
2022-08-01T23:48:35.019Z,100.00
2022-08-01T23:51:02.354Z,100.00
2022-08-01T23:53:31.096Z,100.00
2022-08-01T23:55:58.716Z,100.00
2022-08-01T23:58:25.250Z,100.00
